sensor_id;sensor_type;location;lat;lon;timestamp;temperature;humidity
59146;DHT22;44928;53.074;6.646;2023-06-14T00:01:32;17.20;72.30
59146;DHT22;44928;53.074;6.646;2023-06-14T00:04:00;17.20;72.60
59146;DHT22;44928;53.074;6.646;2023-06-14T00:06:28;17.10;72.90
59146;DHT22;44928;53.074;6.646;2023-06-14T00:08:54;17.10;73.40
59146;DHT22;44928;53.074;6.646;2023-06-14T00:11:20;17.00;73.70
59146;DHT22;44928;53.074;6.646;2023-06-14T00:13:46;17.00;74.20
59146;DHT22;44928;53.074;6.646;2023-06-14T00:16:12;17.00;74.70
59146;DHT22;44928;53.074;6.646;2023-06-14T00:18:38;17.00;75.40
59146;DHT22;44928;53.074;6.646;2023-06-14T00:21:05;16.90;75.80
59146;DHT22;44928;53.074;6.646;2023-06-14T00:23:30;16.90;76.40
59146;DHT22;44928;53.074;6.646;2023-06-14T00:25:56;16.90;77.00
59146;DHT22;44928;53.074;6.646;2023-06-14T00:28:22;16.90;77.70
59146;DHT22;44928;53.074;6.646;2023-06-14T00:30:48;16.80;78.40
59146;DHT22;44928;53.074;6.646;2023-06-14T00:33:13;16.80;79.10
59146;DHT22;44928;53.074;6.646;2023-06-14T00:35:40;16.70;79.80
59146;DHT22;44928;53.074;6.646;2023-06-14T00:38:05;16.70;80.50
59146;DHT22;44928;53.074;6.646;2023-06-14T00:40:31;16.60;81.80
59146;DHT22;44928;53.074;6.646;2023-06-14T00:42:57;16.60;82.00
59146;DHT22;44928;53.074;6.646;2023-06-14T00:45:23;16.60;82.80
59146;DHT22;44928;53.074;6.646;2023-06-14T00:47:49;16.50;83.50
59146;DHT22;44928;53.074;6.646;2023-06-14T00:50:18;16.50;84.40
59146;DHT22;44928;53.074;6.646;2023-06-14T00:52:45;16.40;85.30
59146;DHT22;44928;53.074;6.646;2023-06-14T00:55:11;16.40;86.20
59146;DHT22;44928;53.074;6.646;2023-06-14T00:57:37;16.30;87.20
59146;DHT22;44928;53.074;6.646;2023-06-14T01:00:03;16.30;88.30
59146;DHT22;44928;53.074;6.646;2023-06-14T01:02:35;16.30;89.60
59146;DHT22;44928;53.074;6.646;2023-06-14T01:05:02;16.20;90.40
59146;DHT22;44928;53.074;6.646;2023-06-14T01:07:46;16.20;90.90
59146;DHT22;44928;53.074;6.646;2023-06-14T01:15:26;16.10;92.70
59146;DHT22;44928;53.074;6.646;2023-06-14T01:17:53;16.00;93.30
59146;DHT22;44928;53.074;6.646;2023-06-14T01:20:21;16.00;93.90
59146;DHT22;44928;53.074;6.646;2023-06-14T01:22:53;16.00;94.50
59146;DHT22;44928;53.074;6.646;2023-06-14T01:25:22;15.90;95.00
59146;DHT22;44928;53.074;6.646;2023-06-14T01:27:57;15.90;95.80
59146;DHT22;44928;53.074;6.646;2023-06-14T01:30:24;15.90;96.10
59146;DHT22;44928;53.074;6.646;2023-06-14T01:32:54;15.80;96.50
59146;DHT22;44928;53.074;6.646;2023-06-14T01:35:21;15.70;97.00
59146;DHT22;44928;53.074;6.646;2023-06-14T01:37:48;15.80;97.40
59146;DHT22;44928;53.074;6.646;2023-06-14T01:40:15;15.70;97.70
59146;DHT22;44928;53.074;6.646;2023-06-14T01:42:42;15.70;98.10
59146;DHT22;44928;53.074;6.646;2023-06-14T01:45:09;15.60;98.40
59146;DHT22;44928;53.074;6.646;2023-06-14T01:47:36;15.60;98.70
59146;DHT22;44928;53.074;6.646;2023-06-14T01:50:03;15.50;99.00
59146;DHT22;44928;53.074;6.646;2023-06-14T01:52:29;15.50;99.30
59146;DHT22;44928;53.074;6.646;2023-06-14T01:54:55;15.40;99.60
59146;DHT22;44928;53.074;6.646;2023-06-14T01:57:22;15.40;99.90
59146;DHT22;44928;53.074;6.646;2023-06-14T01:59:48;15.40;99.90
59146;DHT22;44928;53.074;6.646;2023-06-14T02:02:15;15.30;99.90
59146;DHT22;44928;53.074;6.646;2023-06-14T02:04:41;15.30;99.90
59146;DHT22;44928;53.074;6.646;2023-06-14T02:07:07;15.20;99.90
59146;DHT22;44928;53.074;6.646;2023-06-14T02:09:34;15.20;99.90
59146;DHT22;44928;53.074;6.646;2023-06-14T02:12:00;15.10;99.90
59146;DHT22;44928;53.074;6.646;2023-06-14T02:14:26;15.10;99.90
59146;DHT22;44928;53.074;6.646;2023-06-14T02:16:52;15.10;99.90
59146;DHT22;44928;53.074;6.646;2023-06-14T02:19:19;15.00;99.90
59146;DHT22;44928;53.074;6.646;2023-06-14T02:21:46;15.00;99.90
59146;DHT22;44928;53.074;6.646;2023-06-14T02:24:13;15.00;99.90
59146;DHT22;44928;53.074;6.646;2023-06-14T02:26:39;15.00;99.90
59146;DHT22;44928;53.074;6.646;2023-06-14T02:29:06;15.00;99.90
59146;DHT22;44928;53.074;6.646;2023-06-14T02:31:35;15.00;99.90
59146;DHT22;44928;53.074;6.646;2023-06-14T02:34:01;15.00;99.90
59146;DHT22;44928;53.074;6.646;2023-06-14T02:36:27;15.00;99.90
59146;DHT22;44928;53.074;6.646;2023-06-14T02:38:56;15.00;99.90
59146;DHT22;44928;53.074;6.646;2023-06-14T02:41:26;14.90;99.90
59146;DHT22;44928;53.074;6.646;2023-06-14T02:43:52;14.90;99.90
59146;DHT22;44928;53.074;6.646;2023-06-14T02:46:18;14.90;99.90
59146;DHT22;44928;53.074;6.646;2023-06-14T02:48:44;14.90;99.90
59146;DHT22;44928;53.074;6.646;2023-06-14T02:51:10;14.90;99.90
59146;DHT22;44928;53.074;6.646;2023-06-14T02:53:36;15.00;99.90
59146;DHT22;44928;53.074;6.646;2023-06-14T02:56:02;15.00;99.90
59146;DHT22;44928;53.074;6.646;2023-06-14T02:58:29;15.00;99.90
59146;DHT22;44928;53.074;6.646;2023-06-14T03:00:55;14.90;99.90
59146;DHT22;44928;53.074;6.646;2023-06-14T03:03:21;15.00;99.90
59146;DHT22;44928;53.074;6.646;2023-06-14T03:05:50;15.00;99.90
59146;DHT22;44928;53.074;6.646;2023-06-14T03:08:17;15.00;99.90
59146;DHT22;44928;53.074;6.646;2023-06-14T03:10:48;15.00;99.90
59146;DHT22;44928;53.074;6.646;2023-06-14T03:13:14;15.00;99.90
59146;DHT22;44928;53.074;6.646;2023-06-14T03:15:46;14.90;99.90
59146;DHT22;44928;53.074;6.646;2023-06-14T03:18:16;14.90;99.90
59146;DHT22;44928;53.074;6.646;2023-06-14T03:20:42;14.90;99.90
59146;DHT22;44928;53.074;6.646;2023-06-14T03:23:11;14.90;99.90
59146;DHT22;44928;53.074;6.646;2023-06-14T03:25:37;14.90;99.90
59146;DHT22;44928;53.074;6.646;2023-06-14T03:28:04;14.90;99.90
59146;DHT22;44928;53.074;6.646;2023-06-14T03:30:31;14.90;99.90
59146;DHT22;44928;53.074;6.646;2023-06-14T03:32:57;14.90;99.90
59146;DHT22;44928;53.074;6.646;2023-06-14T03:35:23;14.80;99.90
59146;DHT22;44928;53.074;6.646;2023-06-14T03:37:49;14.80;99.90
59146;DHT22;44928;53.074;6.646;2023-06-14T03:40:17;14.80;99.90
59146;DHT22;44928;53.074;6.646;2023-06-14T03:42:43;14.80;99.90
59146;DHT22;44928;53.074;6.646;2023-06-14T03:45:09;14.80;99.90
59146;DHT22;44928;53.074;6.646;2023-06-14T03:47:35;14.80;99.90
59146;DHT22;44928;53.074;6.646;2023-06-14T03:50:02;14.70;99.90
59146;DHT22;44928;53.074;6.646;2023-06-14T03:52:28;14.80;99.90
59146;DHT22;44928;53.074;6.646;2023-06-14T03:54:54;14.80;99.90
59146;DHT22;44928;53.074;6.646;2023-06-14T03:57:19;14.80;99.90
59146;DHT22;44928;53.074;6.646;2023-06-14T03:59:45;14.80;99.90
59146;DHT22;44928;53.074;6.646;2023-06-14T04:02:12;14.80;99.90
59146;DHT22;44928;53.074;6.646;2023-06-14T04:04:41;14.80;99.90
59146;DHT22;44928;53.074;6.646;2023-06-14T04:07:13;14.80;99.90
59146;DHT22;44928;53.074;6.646;2023-06-14T04:09:39;14.80;99.90
59146;DHT22;44928;53.074;6.646;2023-06-14T04:12:06;14.80;99.90
59146;DHT22;44928;53.074;6.646;2023-06-14T04:14:32;14.80;99.90
59146;DHT22;44928;53.074;6.646;2023-06-14T04:16:58;14.80;99.90
59146;DHT22;44928;53.074;6.646;2023-06-14T04:19:24;14.80;99.90
59146;DHT22;44928;53.074;6.646;2023-06-14T04:21:50;14.80;99.90
59146;DHT22;44928;53.074;6.646;2023-06-14T04:24:16;14.90;99.90
59146;DHT22;44928;53.074;6.646;2023-06-14T04:26:42;14.80;99.90
59146;DHT22;44928;53.074;6.646;2023-06-14T04:29:14;14.90;99.90
59146;DHT22;44928;53.074;6.646;2023-06-14T04:31:42;14.90;99.90
59146;DHT22;44928;53.074;6.646;2023-06-14T04:34:08;14.90;99.90
59146;DHT22;44928;53.074;6.646;2023-06-14T04:36:34;15.00;99.90
59146;DHT22;44928;53.074;6.646;2023-06-14T04:39:03;15.00;99.90
59146;DHT22;44928;53.074;6.646;2023-06-14T04:41:30;15.00;99.90
59146;DHT22;44928;53.074;6.646;2023-06-14T04:43:57;15.00;99.90
59146;DHT22;44928;53.074;6.646;2023-06-14T04:46:30;15.00;99.90
59146;DHT22;44928;53.074;6.646;2023-06-14T04:48:57;15.10;99.90
59146;DHT22;44928;53.074;6.646;2023-06-14T04:51:23;15.10;99.90
59146;DHT22;44928;53.074;6.646;2023-06-14T04:53:56;15.10;99.90
59146;DHT22;44928;53.074;6.646;2023-06-14T04:56:25;15.20;99.90
59146;DHT22;44928;53.074;6.646;2023-06-14T04:58:51;15.20;99.90
59146;DHT22;44928;53.074;6.646;2023-06-14T05:01:18;15.20;99.90
59146;DHT22;44928;53.074;6.646;2023-06-14T05:03:44;15.20;99.90
59146;DHT22;44928;53.074;6.646;2023-06-14T05:06:11;15.30;99.90
59146;DHT22;44928;53.074;6.646;2023-06-14T05:08:37;15.30;99.90
59146;DHT22;44928;53.074;6.646;2023-06-14T05:11:03;15.40;99.90
59146;DHT22;44928;53.074;6.646;2023-06-14T05:13:28;15.40;99.90
59146;DHT22;44928;53.074;6.646;2023-06-14T05:15:54;15.40;99.90
59146;DHT22;44928;53.074;6.646;2023-06-14T05:18:20;15.50;99.90
59146;DHT22;44928;53.074;6.646;2023-06-14T05:20:46;15.50;99.90
59146;DHT22;44928;53.074;6.646;2023-06-14T05:23:11;15.50;99.90
59146;DHT22;44928;53.074;6.646;2023-06-14T05:25:42;15.60;99.90
59146;DHT22;44928;53.074;6.646;2023-06-14T05:28:08;15.70;99.90
59146;DHT22;44928;53.074;6.646;2023-06-14T05:30:34;15.70;99.90
59146;DHT22;44928;53.074;6.646;2023-06-14T05:33:00;15.80;99.90
59146;DHT22;44928;53.074;6.646;2023-06-14T05:35:25;15.80;99.90
59146;DHT22;44928;53.074;6.646;2023-06-14T05:37:52;15.90;99.90
59146;DHT22;44928;53.074;6.646;2023-06-14T05:40:19;15.90;99.90
59146;DHT22;44928;53.074;6.646;2023-06-14T05:42:45;16.00;99.90
59146;DHT22;44928;53.074;6.646;2023-06-14T05:45:11;16.10;99.90
59146;DHT22;44928;53.074;6.646;2023-06-14T05:47:37;16.10;99.90
59146;DHT22;44928;53.074;6.646;2023-06-14T05:50:03;16.10;99.90
59146;DHT22;44928;53.074;6.646;2023-06-14T05:52:29;16.20;99.90
59146;DHT22;44928;53.074;6.646;2023-06-14T05:54:55;16.20;99.90
59146;DHT22;44928;53.074;6.646;2023-06-14T05:57:21;16.30;99.90
59146;DHT22;44928;53.074;6.646;2023-06-14T05:59:47;16.30;99.90
59146;DHT22;44928;53.074;6.646;2023-06-14T06:02:12;16.40;99.90
59146;DHT22;44928;53.074;6.646;2023-06-14T06:04:38;16.50;99.90
59146;DHT22;44928;53.074;6.646;2023-06-14T06:07:04;16.60;99.90
59146;DHT22;44928;53.074;6.646;2023-06-14T06:09:31;16.70;99.90
59146;DHT22;44928;53.074;6.646;2023-06-14T06:11:56;16.70;99.90
59146;DHT22;44928;53.074;6.646;2023-06-14T06:14:22;16.80;99.90
59146;DHT22;44928;53.074;6.646;2023-06-14T06:16:48;16.80;99.90
59146;DHT22;44928;53.074;6.646;2023-06-14T06:19:13;16.90;99.90
59146;DHT22;44928;53.074;6.646;2023-06-14T06:21:39;16.90;99.90
59146;DHT22;44928;53.074;6.646;2023-06-14T06:24:06;17.00;99.90
59146;DHT22;44928;53.074;6.646;2023-06-14T06:26:32;17.10;99.90
59146;DHT22;44928;53.074;6.646;2023-06-14T06:28:58;17.10;99.90
59146;DHT22;44928;53.074;6.646;2023-06-14T06:31:24;17.10;99.90
59146;DHT22;44928;53.074;6.646;2023-06-14T06:33:53;17.20;99.90
59146;DHT22;44928;53.074;6.646;2023-06-14T06:36:20;17.30;99.90
59146;DHT22;44928;53.074;6.646;2023-06-14T06:38:47;17.30;99.90
59146;DHT22;44928;53.074;6.646;2023-06-14T06:41:13;17.40;99.90
59146;DHT22;44928;53.074;6.646;2023-06-14T06:43:39;17.50;99.90
59146;DHT22;44928;53.074;6.646;2023-06-14T06:46:04;17.50;99.90
59146;DHT22;44928;53.074;6.646;2023-06-14T06:48:30;17.60;99.90
59146;DHT22;44928;53.074;6.646;2023-06-14T06:50:56;17.70;99.90
59146;DHT22;44928;53.074;6.646;2023-06-14T06:53:22;17.70;99.90
59146;DHT22;44928;53.074;6.646;2023-06-14T06:55:48;17.80;99.90
59146;DHT22;44928;53.074;6.646;2023-06-14T06:58:14;17.90;99.90
59146;DHT22;44928;53.074;6.646;2023-06-14T07:00:40;17.90;99.90
59146;DHT22;44928;53.074;6.646;2023-06-14T07:03:06;18.10;99.90
59146;DHT22;44928;53.074;6.646;2023-06-14T07:05:32;18.20;99.90
59146;DHT22;44928;53.074;6.646;2023-06-14T07:07:58;18.30;99.90
59146;DHT22;44928;53.074;6.646;2023-06-14T07:10:24;18.40;99.90
59146;DHT22;44928;53.074;6.646;2023-06-14T07:12:50;18.60;99.90
59146;DHT22;44928;53.074;6.646;2023-06-14T07:15:16;18.70;99.90
59146;DHT22;44928;53.074;6.646;2023-06-14T07:17:42;18.80;99.90
59146;DHT22;44928;53.074;6.646;2023-06-14T07:20:08;18.80;99.80
59146;DHT22;44928;53.074;6.646;2023-06-14T07:22:38;18.90;99.50
59146;DHT22;44928;53.074;6.646;2023-06-14T07:25:05;19.00;99.40
59146;DHT22;44928;53.074;6.646;2023-06-14T07:27:30;19.10;99.40
59146;DHT22;44928;53.074;6.646;2023-06-14T07:29:56;19.10;99.50
59146;DHT22;44928;53.074;6.646;2023-06-14T07:32:22;19.20;99.20
59146;DHT22;44928;53.074;6.646;2023-06-14T07:34:47;19.30;98.90
59146;DHT22;44928;53.074;6.646;2023-06-14T07:37:13;19.30;98.80
59146;DHT22;44928;53.074;6.646;2023-06-14T07:39:39;19.40;98.70
59146;DHT22;44928;53.074;6.646;2023-06-14T07:42:05;19.50;98.40
59146;DHT22;44928;53.074;6.646;2023-06-14T07:44:30;19.60;98.10
59146;DHT22;44928;53.074;6.646;2023-06-14T07:46:56;19.60;97.80
59146;DHT22;44928;53.074;6.646;2023-06-14T07:49:26;19.70;97.70
59146;DHT22;44928;53.074;6.646;2023-06-14T07:51:51;19.80;97.40
59146;DHT22;44928;53.074;6.646;2023-06-14T07:54:19;19.80;97.20
59146;DHT22;44928;53.074;6.646;2023-06-14T07:56:45;19.90;97.20
59146;DHT22;44928;53.074;6.646;2023-06-14T07:59:11;20.00;96.90
59146;DHT22;44928;53.074;6.646;2023-06-14T08:01:37;20.10;96.80
59146;DHT22;44928;53.074;6.646;2023-06-14T08:04:03;20.10;96.70
59146;DHT22;44928;53.074;6.646;2023-06-14T08:06:29;20.20;96.20
59146;DHT22;44928;53.074;6.646;2023-06-14T08:08:55;20.20;96.00
59146;DHT22;44928;53.074;6.646;2023-06-14T08:11:21;20.30;96.00
59146;DHT22;44928;53.074;6.646;2023-06-14T08:13:49;20.40;96.20
59146;DHT22;44928;53.074;6.646;2023-06-14T08:16:15;20.40;96.10
59146;DHT22;44928;53.074;6.646;2023-06-14T08:18:41;20.50;96.20
59146;DHT22;44928;53.074;6.646;2023-06-14T08:21:06;20.60;95.70
59146;DHT22;44928;53.074;6.646;2023-06-14T08:23:32;20.60;95.40
59146;DHT22;44928;53.074;6.646;2023-06-14T08:25:58;20.70;95.20
59146;DHT22;44928;53.074;6.646;2023-06-14T08:28:26;20.80;94.80
59146;DHT22;44928;53.074;6.646;2023-06-14T08:30:52;20.80;94.50
59146;DHT22;44928;53.074;6.646;2023-06-14T08:33:18;20.90;94.00
59146;DHT22;44928;53.074;6.646;2023-06-14T08:35:44;21.00;93.80
59146;DHT22;44928;53.074;6.646;2023-06-14T08:38:10;21.00;93.70
59146;DHT22;44928;53.074;6.646;2023-06-14T08:40:37;21.10;93.50
59146;DHT22;44928;53.074;6.646;2023-06-14T08:43:04;21.20;93.30
59146;DHT22;44928;53.074;6.646;2023-06-14T08:45:30;21.40;93.20
59146;DHT22;44928;53.074;6.646;2023-06-14T08:47:55;21.50;92.40
59146;DHT22;44928;53.074;6.646;2023-06-14T08:50:25;21.60;91.80
59146;DHT22;44928;53.074;6.646;2023-06-14T08:52:59;21.80;91.20
59146;DHT22;44928;53.074;6.646;2023-06-14T08:55:28;21.90;91.00
59146;DHT22;44928;53.074;6.646;2023-06-14T08:57:56;22.10;91.00
59146;DHT22;44928;53.074;6.646;2023-06-14T09:00:26;22.20;90.20
59146;DHT22;44928;53.074;6.646;2023-06-14T09:02:52;22.50;89.80
59146;DHT22;44928;53.074;6.646;2023-06-14T09:05:24;22.60;86.40
59146;DHT22;44928;53.074;6.646;2023-06-14T09:07:50;22.80;85.30
59146;DHT22;44928;53.074;6.646;2023-06-14T09:10:16;23.00;84.80
59146;DHT22;44928;53.074;6.646;2023-06-14T09:12:42;23.10;84.10
59146;DHT22;44928;53.074;6.646;2023-06-14T09:15:09;23.30;83.70
59146;DHT22;44928;53.074;6.646;2023-06-14T09:17:36;23.50;83.20
59146;DHT22;44928;53.074;6.646;2023-06-14T09:20:06;23.80;82.20
59146;DHT22;44928;53.074;6.646;2023-06-14T09:22:37;23.90;80.40
59146;DHT22;44928;53.074;6.646;2023-06-14T09:25:03;24.00;79.30
59146;DHT22;44928;53.074;6.646;2023-06-14T09:27:30;24.10;77.70
59146;DHT22;44928;53.074;6.646;2023-06-14T09:29:56;24.20;77.00
59146;DHT22;44928;53.074;6.646;2023-06-14T09:32:22;24.30;76.30
59146;DHT22;44928;53.074;6.646;2023-06-14T09:34:48;24.50;75.70
59146;DHT22;44928;53.074;6.646;2023-06-14T09:37:27;24.70;74.50
59146;DHT22;44928;53.074;6.646;2023-06-14T09:39:53;25.00;73.20
59146;DHT22;44928;53.074;6.646;2023-06-14T09:42:19;25.20;71.70
59146;DHT22;44928;53.074;6.646;2023-06-14T09:44:48;25.30;70.60
59146;DHT22;44928;53.074;6.646;2023-06-14T09:47:15;25.40;69.00
59146;DHT22;44928;53.074;6.646;2023-06-14T09:49:42;25.50;67.90
59146;DHT22;44928;53.074;6.646;2023-06-14T09:52:16;25.70;66.90
59146;DHT22;44928;53.074;6.646;2023-06-14T09:54:43;25.80;66.70
59146;DHT22;44928;53.074;6.646;2023-06-14T09:57:13;26.00;67.10
59146;DHT22;44928;53.074;6.646;2023-06-14T09:59:44;26.20;66.30
59146;DHT22;44928;53.074;6.646;2023-06-14T10:02:27;26.50;65.60
59146;DHT22;44928;53.074;6.646;2023-06-14T10:05:03;26.70;64.20
59146;DHT22;44928;53.074;6.646;2023-06-14T10:07:35;26.80;64.00
59146;DHT22;44928;53.074;6.646;2023-06-14T10:10:01;26.90;62.70
59146;DHT22;44928;53.074;6.646;2023-06-14T10:12:27;27.00;62.90
59146;DHT22;44928;53.074;6.646;2023-06-14T10:14:53;27.20;62.40
59146;DHT22;44928;53.074;6.646;2023-06-14T10:17:40;27.30;62.10
59146;DHT22;44928;53.074;6.646;2023-06-14T10:20:32;27.40;61.80
59146;DHT22;44928;53.074;6.646;2023-06-14T10:25:42;27.50;59.50
59146;DHT22;44928;53.074;6.646;2023-06-14T10:28:18;27.50;59.00
59146;DHT22;44928;53.074;6.646;2023-06-14T10:31:03;27.70;59.10
59146;DHT22;44928;53.074;6.646;2023-06-14T10:33:30;27.80;59.10
59146;DHT22;44928;53.074;6.646;2023-06-14T10:36:24;27.90;58.50
59146;DHT22;44928;53.074;6.646;2023-06-14T10:39:14;28.10;58.80
59146;DHT22;44928;53.074;6.646;2023-06-14T10:41:41;28.30;58.00
59146;DHT22;44928;53.074;6.646;2023-06-14T10:46:40;28.50;56.10
59146;DHT22;44928;53.074;6.646;2023-06-14T10:49:06;28.50;55.30
59146;DHT22;44928;53.074;6.646;2023-06-14T10:51:40;28.70;54.70
59146;DHT22;44928;53.074;6.646;2023-06-14T10:54:13;28.70;52.70
59146;DHT22;44928;53.074;6.646;2023-06-14T10:56:54;28.90;52.30
59146;DHT22;44928;53.074;6.646;2023-06-14T10:59:21;29.00;52.00
59146;DHT22;44928;53.074;6.646;2023-06-14T11:04:51;29.10;50.20
59146;DHT22;44928;53.074;6.646;2023-06-14T11:13:08;29.20;50.40
59146;DHT22;44928;53.074;6.646;2023-06-14T11:15:37;29.40;49.10
59146;DHT22;44928;53.074;6.646;2023-06-14T11:18:07;29.40;48.70
59146;DHT22;44928;53.074;6.646;2023-06-14T11:20:34;29.50;48.10
59146;DHT22;44928;53.074;6.646;2023-06-14T11:23:01;29.50;48.20
59146;DHT22;44928;53.074;6.646;2023-06-14T11:25:27;29.50;48.60
59146;DHT22;44928;53.074;6.646;2023-06-14T11:27:56;29.60;47.90
59146;DHT22;44928;53.074;6.646;2023-06-14T11:30:23;29.60;48.10
59146;DHT22;44928;53.074;6.646;2023-06-14T11:32:50;29.70;48.50
59146;DHT22;44928;53.074;6.646;2023-06-14T11:35:18;29.90;48.70
59146;DHT22;44928;53.074;6.646;2023-06-14T11:37:43;30.00;48.10
59146;DHT22;44928;53.074;6.646;2023-06-14T11:40:13;30.00;48.00
59146;DHT22;44928;53.074;6.646;2023-06-14T11:42:40;30.00;48.30
59146;DHT22;44928;53.074;6.646;2023-06-14T11:45:11;30.10;48.60
59146;DHT22;44928;53.074;6.646;2023-06-14T11:47:38;30.20;47.80
59146;DHT22;44928;53.074;6.646;2023-06-14T11:50:07;30.40;46.90
59146;DHT22;44928;53.074;6.646;2023-06-14T11:52:34;30.40;46.70
59146;DHT22;44928;53.074;6.646;2023-06-14T11:55:01;30.30;47.10
59146;DHT22;44928;53.074;6.646;2023-06-14T11:57:30;30.40;47.50
59146;DHT22;44928;53.074;6.646;2023-06-14T11:59:55;30.50;47.40
59146;DHT22;44928;53.074;6.646;2023-06-14T12:02:22;30.70;46.90
59146;DHT22;44928;53.074;6.646;2023-06-14T12:04:48;30.70;46.90
59146;DHT22;44928;53.074;6.646;2023-06-14T12:07:15;30.80;46.90
59146;DHT22;44928;53.074;6.646;2023-06-14T12:12:25;30.80;46.70
59146;DHT22;44928;53.074;6.646;2023-06-14T12:14:51;30.90;46.20
59146;DHT22;44928;53.074;6.646;2023-06-14T12:17:18;30.90;46.40
59146;DHT22;44928;53.074;6.646;2023-06-14T12:19:45;30.90;46.10
59146;DHT22;44928;53.074;6.646;2023-06-14T12:22:15;30.90;45.80
59146;DHT22;44928;53.074;6.646;2023-06-14T12:24:44;30.70;45.50
59146;DHT22;44928;53.074;6.646;2023-06-14T12:27:11;30.40;45.40
59146;DHT22;44928;53.074;6.646;2023-06-14T12:29:41;30.20;45.10
59146;DHT22;44928;53.074;6.646;2023-06-14T12:32:11;30.10;45.30
59146;DHT22;44928;53.074;6.646;2023-06-14T12:34:37;29.90;45.80
59146;DHT22;44928;53.074;6.646;2023-06-14T12:37:03;29.80;46.00
59146;DHT22;44928;53.074;6.646;2023-06-14T12:39:32;29.70;46.40
59146;DHT22;44928;53.074;6.646;2023-06-14T12:41:58;29.50;46.00
59146;DHT22;44928;53.074;6.646;2023-06-14T12:44:24;29.40;46.00
59146;DHT22;44928;53.074;6.646;2023-06-14T12:46:50;29.20;46.30
59146;DHT22;44928;53.074;6.646;2023-06-14T12:49:20;29.10;46.90
59146;DHT22;44928;53.074;6.646;2023-06-14T12:51:46;29.00;47.30
59146;DHT22;44928;53.074;6.646;2023-06-14T12:54:12;29.00;47.30
59146;DHT22;44928;53.074;6.646;2023-06-14T12:56:38;29.00;47.50
59146;DHT22;44928;53.074;6.646;2023-06-14T12:59:03;28.90;47.50
59146;DHT22;44928;53.074;6.646;2023-06-14T13:01:29;28.90;48.00
59146;DHT22;44928;53.074;6.646;2023-06-14T13:03:55;28.80;47.80
59146;DHT22;44928;53.074;6.646;2023-06-14T13:06:21;28.70;48.10
59146;DHT22;44928;53.074;6.646;2023-06-14T13:08:50;28.60;47.40
59146;DHT22;44928;53.074;6.646;2023-06-14T13:11:16;28.60;47.40
59146;DHT22;44928;53.074;6.646;2023-06-14T13:13:42;28.50;47.80
59146;DHT22;44928;53.074;6.646;2023-06-14T13:16:07;28.50;47.60
59146;DHT22;44928;53.074;6.646;2023-06-14T13:18:33;28.50;47.50
59146;DHT22;44928;53.074;6.646;2023-06-14T13:20:59;28.40;47.30
59146;DHT22;44928;53.074;6.646;2023-06-14T13:23:25;28.30;47.40
59146;DHT22;44928;53.074;6.646;2023-06-14T13:25:51;28.10;47.80
59146;DHT22;44928;53.074;6.646;2023-06-14T13:28:17;28.10;47.60
59146;DHT22;44928;53.074;6.646;2023-06-14T13:30:43;28.00;47.70
59146;DHT22;44928;53.074;6.646;2023-06-14T13:33:09;27.90;47.90
59146;DHT22;44928;53.074;6.646;2023-06-14T13:35:35;27.80;48.50
59146;DHT22;44928;53.074;6.646;2023-06-14T13:38:01;27.70;49.10
59146;DHT22;44928;53.074;6.646;2023-06-14T13:40:26;27.80;48.60
59146;DHT22;44928;53.074;6.646;2023-06-14T13:42:52;27.80;48.50
59146;DHT22;44928;53.074;6.646;2023-06-14T13:45:18;27.80;48.30
59146;DHT22;44928;53.074;6.646;2023-06-14T13:47:44;27.90;48.50
59146;DHT22;44928;53.074;6.646;2023-06-14T13:50:10;27.90;48.10
59146;DHT22;44928;53.074;6.646;2023-06-14T13:52:36;27.80;48.00
59146;DHT22;44928;53.074;6.646;2023-06-14T13:55:02;27.70;48.10
59146;DHT22;44928;53.074;6.646;2023-06-14T13:57:28;27.70;49.00
59146;DHT22;44928;53.074;6.646;2023-06-14T13:59:54;27.70;48.50
59146;DHT22;44928;53.074;6.646;2023-06-14T14:02:21;27.80;48.60
59146;DHT22;44928;53.074;6.646;2023-06-14T14:04:47;27.80;48.30
59146;DHT22;44928;53.074;6.646;2023-06-14T14:07:18;27.70;48.50
59146;DHT22;44928;53.074;6.646;2023-06-14T14:09:44;27.80;48.80
59146;DHT22;44928;53.074;6.646;2023-06-14T14:12:10;27.90;48.40
59146;DHT22;44928;53.074;6.646;2023-06-14T14:14:36;27.90;48.50
59146;DHT22;44928;53.074;6.646;2023-06-14T14:17:02;27.80;48.00
59146;DHT22;44928;53.074;6.646;2023-06-14T14:19:28;27.60;47.60
59146;DHT22;44928;53.074;6.646;2023-06-14T14:21:54;27.40;48.20
59146;DHT22;44928;53.074;6.646;2023-06-14T14:24:20;27.30;48.40
59146;DHT22;44928;53.074;6.646;2023-06-14T14:26:45;27.10;48.20
59146;DHT22;44928;53.074;6.646;2023-06-14T14:29:14;27.10;48.20
59146;DHT22;44928;53.074;6.646;2023-06-14T14:31:40;27.10;48.50
59146;DHT22;44928;53.074;6.646;2023-06-14T14:34:06;27.00;48.80
59146;DHT22;44928;53.074;6.646;2023-06-14T14:36:31;26.90;49.20
59146;DHT22;44928;53.074;6.646;2023-06-14T14:38:59;26.80;49.30
59146;DHT22;44928;53.074;6.646;2023-06-14T14:41:24;26.70;49.20
59146;DHT22;44928;53.074;6.646;2023-06-14T14:43:50;26.60;49.40
59146;DHT22;44928;53.074;6.646;2023-06-14T14:46:16;26.50;49.40
59146;DHT22;44928;53.074;6.646;2023-06-14T14:48:42;26.50;49.60
59146;DHT22;44928;53.074;6.646;2023-06-14T14:51:08;26.50;49.60
59146;DHT22;44928;53.074;6.646;2023-06-14T14:53:33;26.50;49.30
59146;DHT22;44928;53.074;6.646;2023-06-14T14:55:59;26.40;49.10
59146;DHT22;44928;53.074;6.646;2023-06-14T14:58:25;26.40;49.00
59146;DHT22;44928;53.074;6.646;2023-06-14T15:00:51;26.50;49.10
59146;DHT22;44928;53.074;6.646;2023-06-14T15:03:17;26.50;49.10
59146;DHT22;44928;53.074;6.646;2023-06-14T15:05:42;26.50;49.10
59146;DHT22;44928;53.074;6.646;2023-06-14T15:08:08;26.60;49.40
59146;DHT22;44928;53.074;6.646;2023-06-14T15:10:40;26.50;50.00
59146;DHT22;44928;53.074;6.646;2023-06-14T15:13:07;26.50;50.30
59146;DHT22;44928;53.074;6.646;2023-06-14T15:15:34;26.50;50.30
59146;DHT22;44928;53.074;6.646;2023-06-14T15:18:00;26.40;50.40
59146;DHT22;44928;53.074;6.646;2023-06-14T15:20:26;26.30;50.30
59146;DHT22;44928;53.074;6.646;2023-06-14T15:22:52;26.20;49.80
59146;DHT22;44928;53.074;6.646;2023-06-14T15:25:18;26.10;49.90
59146;DHT22;44928;53.074;6.646;2023-06-14T15:27:44;26.00;50.00
59146;DHT22;44928;53.074;6.646;2023-06-14T15:30:11;25.90;49.90
59146;DHT22;44928;53.074;6.646;2023-06-14T15:32:36;25.90;50.70
59146;DHT22;44928;53.074;6.646;2023-06-14T15:35:02;26.00;51.10
59146;DHT22;44928;53.074;6.646;2023-06-14T15:37:28;26.10;51.50
59146;DHT22;44928;53.074;6.646;2023-06-14T15:39:54;26.10;51.50
59146;DHT22;44928;53.074;6.646;2023-06-14T15:42:20;26.20;51.00
59146;DHT22;44928;53.074;6.646;2023-06-14T15:44:45;26.20;50.70
59146;DHT22;44928;53.074;6.646;2023-06-14T15:47:13;26.30;50.90
59146;DHT22;44928;53.074;6.646;2023-06-14T15:49:39;26.30;50.40
59146;DHT22;44928;53.074;6.646;2023-06-14T15:52:05;26.20;50.30